Time;durP1;ratioP1;P1;durP2;ratioP2;P2;SDS_P1;SDS_P2;PMS_P1;PMS_P2;Temp;Humidity;BMP_temperature;BMP_pressure;BME280_temperature;BME280_humidity;BME280_pressure;Samples;Min_cycle;Max_cycle;Signal;HPM_P1;HPM_P2
2023/12/17 00:00:05;;;;;;;;;;;;;;;8.29;100.00;103394.00;4994421;28;19925;-71
2023/12/17 00:02:31;;;;;;;;;;;;;;;8.29;100.00;103393.13;4979222;28;19925;-71
2023/12/17 00:04:56;;;;;;;;;;;;;;;8.28;100.00;103391.34;4964081;28;20028;-72
2023/12/17 00:07:21;;;;;;;;;;;;;;;8.28;100.00;103391.34;4966200;28;19928;-71
2023/12/17 00:09:46;;;;;;;;;;;;;;;8.29;100.00;103391.34;4983120;28;19925;-70
2023/12/17 00:12:11;;;;;;;;;;;;;;;8.29;100.00;103380.63;4983009;28;19929;-68
2023/12/17 00:14:37;;;;;;;;;;;;;;;8.31;100.00;103383.25;4983313;28;19921;-70
2023/12/17 00:17:02;;;;;;;;;;;;;;;8.28;100.00;103377.97;4979671;28;19965;-72
2023/12/17 00:19:27;;;;;;;;;;;;;;;8.30;100.00;103381.50;4981400;28;19983;-72
2023/12/17 00:21:53;;;;;;;;;;;;;;;8.33;100.00;103382.31;4968772;28;19964;-71
2023/12/17 00:24:18;;;;;;;;;;;;;;;8.35;100.00;103374.22;4966533;28;20655;-71
2023/12/17 00:26:43;;;;;;;;;;;;;;;8.39;100.00;103381.25;4979157;28;19980;-71
2023/12/17 00:29:08;;;;;;;;;;;;;;;8.41;100.00;103382.09;4996676;28;19928;-72
2023/12/17 00:31:34;;;;;;;;;;;;;;;8.38;100.00;103387.53;4980292;28;20025;-71
2023/12/17 00:34:00;;;;;;;;;;;;;;;8.39;100.00;103390.16;4977592;28;19926;-71
2023/12/17 00:36:25;;;;;;;;;;;;;;;8.35;100.00;103387.59;4980770;28;19926;-70
2023/12/17 00:38:50;;;;;;;;;;;;;;;8.41;100.00;103384.75;4964286;28;19995;-71
2023/12/17 00:41:16;;;;;;;;;;;;;;;8.40;100.00;103389.22;4980851;28;19922;-71
2023/12/17 00:43:41;;;;;;;;;;;;;;;8.36;100.00;103384.88;4979830;28;19922;-70
2023/12/17 00:46:06;;;;;;;;;;;;;;;8.40;100.00;103386.53;4982009;28;19925;-72
2023/12/17 00:48:31;;;;;;;;;;;;;;;8.39;100.00;103379.44;4982530;28;19925;-72
2023/12/17 00:50:56;;;;;;;;;;;;;;;8.37;100.00;103383.94;4981217;28;19929;-70
2023/12/17 00:53:22;;;;;;;;;;;;;;;8.40;100.00;103375.84;4979200;28;20033;-72
2023/12/17 00:55:47;;;;;;;;;;;;;;;8.44;100.00;103376.66;4969566;28;19995;-71
2023/12/17 00:58:12;;;;;;;;;;;;;;;8.41;100.00;103380.28;4966473;28;20002;-72
2023/12/17 01:00:37;;;;;;;;;;;;;;;8.44;100.00;103378.44;4983229;28;20027;-72
2023/12/17 01:03:03;;;;;;;;;;;;;;;8.41;100.00;103372.25;4966720;28;19925;-72
2023/12/17 01:05:28;;;;;;;;;;;;;;;8.43;100.00;103369.53;4978806;28;20023;-70
2023/12/17 01:07:53;;;;;;;;;;;;;;;8.44;100.00;103379.31;4982084;28;19925;-72
2023/12/17 01:10:18;;;;;;;;;;;;;;;8.46;100.00;103382.84;4981470;28;19964;-71
2023/12/17 01:12:43;;;;;;;;;;;;;;;8.47;100.00;103395.31;4971820;28;19930;-72
2023/12/17 01:15:10;;;;;;;;;;;;;;;8.48;100.00;103413.13;4977344;28;19953;-71
2023/12/17 01:17:36;;;;;;;;;;;;;;;8.50;100.00;103413.09;4983078;28;20370;-71
2023/12/17 01:20:01;;;;;;;;;;;;;;;8.51;100.00;103404.16;4970023;28;19988;-71
2023/12/17 01:22:26;;;;;;;;;;;;;;;8.50;100.00;103405.94;4983222;28;20001;-72
2023/12/17 01:24:54;;;;;;;;;;;;;;;8.51;100.00;103409.50;4978391;28;19921;-71
2023/12/17 01:27:19;;;;;;;;;;;;;;;8.49;100.00;103412.22;4971117;28;19944;-71
2023/12/17 01:29:45;;;;;;;;;;;;;;;8.49;100.00;103419.38;4983002;28;20435;-71
2023/12/17 01:32:10;;;;;;;;;;;;;;;8.48;100.00;103422.94;4986210;28;20392;-72
2023/12/17 01:34:35;;;;;;;;;;;;;;;8.48;100.00;103428.31;4981714;28;20509;-72
2023/12/17 01:37:00;;;;;;;;;;;;;;;8.44;100.00;103426.63;4984102;28;20132;-72
2023/12/17 01:39:25;;;;;;;;;;;;;;;8.45;100.00;103417.69;4981412;28;19976;-72
2023/12/17 01:41:51;;;;;;;;;;;;;;;8.48;100.00;103423.84;4973057;28;20037;-72
2023/12/17 01:44:16;;;;;;;;;;;;;;;8.31;100.00;103402.00;4987050;28;20350;-73
2023/12/17 01:46:41;;;;;;;;;;;;;;;8.44;100.00;103414.13;4974905;28;19933;-72
2023/12/17 01:49:06;;;;;;;;;;;;;;;8.45;100.00;103423.03;4984994;28;20368;-72
2023/12/17 01:51:32;;;;;;;;;;;;;;;8.48;100.00;103422.94;4989202;28;20295;-69
2023/12/17 01:53:59;;;;;;;;;;;;;;;8.47;100.00;103424.75;4984040;28;20019;-71
2023/12/17 01:56:24;;;;;;;;;;;;;;;8.46;100.00;103430.16;4984244;28;20082;-71
2023/12/17 01:58:49;;;;;;;;;;;;;;;8.43;100.00;103432.91;4983919;28;20162;-71
2023/12/17 02:01:15;;;;;;;;;;;;;;;8.43;100.00;103433.78;4986347;28;19921;-72
2023/12/17 02:03:40;;;;;;;;;;;;;;;8.42;100.00;103424.00;4988473;28;19971;-72
2023/12/17 02:06:08;;;;;;;;;;;;;;;8.43;100.00;103422.19;4974738;28;20024;-72
2023/12/17 02:08:33;;;;;;;;;;;;;;;8.38;100.00;103422.31;4986576;28;19925;-72
2023/12/17 02:10:58;;;;;;;;;;;;;;;8.42;100.00;103426.69;4985223;28;19921;-71
2023/12/17 02:13:23;;;;;;;;;;;;;;;8.40;100.00;103423.16;4981985;28;20757;-71
2023/12/17 02:15:48;;;;;;;;;;;;;;;8.41;100.00;103423.09;4986614;28;19932;-71
2023/12/17 02:18:14;;;;;;;;;;;;;;;8.42;100.00;103418.66;4973402;28;20007;-71
2023/12/17 02:20:39;;;;;;;;;;;;;;;8.42;100.00;103421.31;4988045;28;20678;-71
2023/12/17 02:23:05;;;;;;;;;;;;;;;8.45;100.00;103420.34;4973473;28;20019;-72
2023/12/17 02:25:31;;;;;;;;;;;;;;;8.43;100.00;103427.53;4989476;28;20269;-71
2023/12/17 02:27:57;;;;;;;;;;;;;;;8.39;100.00;103434.78;4990142;28;19952;-71
2023/12/17 02:30:22;;;;;;;;;;;;;;;8.45;100.00;103436.41;4985543;28;20416;-71
2023/12/17 02:32:47;;;;;;;;;;;;;;;8.39;100.00;103429.44;4972479;28;19925;-70
2023/12/17 02:35:12;;;;;;;;;;;;;;;8.36;100.00;103429.53;4980231;28;19973;-72
2023/12/17 02:37:38;;;;;;;;;;;;;;;8.36;100.00;103422.34;4989913;28;20028;-72
2023/12/17 02:40:03;;;;;;;;;;;;;;;8.40;100.00;103416.00;4972211;28;19925;-71
2023/12/17 02:42:29;;;;;;;;;;;;;;;8.39;100.00;103408.88;4985784;28;19922;-72
2023/12/17 02:44:54;;;;;;;;;;;;;;;8.37;100.00;103412.53;4988480;28;20327;-71
2023/12/17 02:47:19;;;;;;;;;;;;;;;8.35;100.00;103414.38;4984871;28;19926;-70
2023/12/17 02:49:45;;;;;;;;;;;;;;;8.36;100.00;103414.31;4986040;28;20368;-71
2023/12/17 02:52:10;;;;;;;;;;;;;;;8.35;100.00;103404.53;4986846;28;19936;-70
2023/12/17 02:54:35;;;;;;;;;;;;;;;8.38;100.00;103412.47;4984800;28;19987;-70
2023/12/17 02:57:00;;;;;;;;;;;;;;;8.35;100.00;103403.66;4985633;28;19913;-71
2023/12/17 02:59:26;;;;;;;;;;;;;;;8.34;100.00;103412.63;4987629;28;19929;-71
2023/12/17 03:01:51;;;;;;;;;;;;;;;8.36;100.00;103410.78;4986596;28;20150;-70
2023/12/17 03:04:17;;;;;;;;;;;;;;;8.31;100.00;103413.59;4978113;28;19936;-70
2023/12/17 03:06:43;;;;;;;;;;;;;;;8.31;100.00;103413.59;4990096;28;20005;-70
2023/12/17 03:09:08;;;;;;;;;;;;;;;8.32;100.00;103419.81;4973520;28;19921;-70
2023/12/17 03:11:33;;;;;;;;;;;;;;;8.31;100.00;103410.91;5002174;28;20000;-71
2023/12/17 03:13:59;;;;;;;;;;;;;;;8.37;100.00;103412.53;4985136;28;19961;-71
2023/12/17 03:16:24;;;;;;;;;;;;;;;8.34;100.00;103412.63;4973863;28;19932;-71
2023/12/17 03:18:49;;;;;;;;;;;;;;;8.33;100.00;103416.22;4986362;28;19957;-70
2023/12/17 03:21:15;;;;;;;;;;;;;;;8.30;100.00;103416.28;4990658;28;19972;-71
2023/12/17 03:23:40;;;;;;;;;;;;;;;8.36;100.00;103417.00;4985074;28;20016;-71
2023/12/17 03:26:05;;;;;;;;;;;;;;;8.35;100.00;103417.91;4986596;28;20426;-71
2023/12/17 03:28:30;;;;;;;;;;;;;;;8.35;100.00;103419.72;4991062;28;20439;-71
2023/12/17 03:30:55;;;;;;;;;;;;;;;8.31;100.00;103426.97;4978534;28;19925;-72
2023/12/17 03:33:21;;;;;;;;;;;;;;;8.42;100.00;103434.72;4984050;28;19953;-71
2023/12/17 03:35:46;;;;;;;;;;;;;;;8.35;100.00;103436.66;4986769;28;20023;-71
2023/12/17 03:38:12;;;;;;;;;;;;;;;8.35;100.00;103438.47;4981831;28;20434;-71
2023/12/17 03:40:37;;;;;;;;;;;;;;;8.28;100.00;103435.09;4984984;28;19917;-71
2023/12/17 03:43:02;;;;;;;;;;;;;;;8.35;100.00;103438.47;4987530;28;20368;-71
2023/12/17 03:45:28;;;;;;;;;;;;;;;8.35;100.00;103446.50;4985566;28;21122;-71
2023/12/17 03:47:53;;;;;;;;;;;;;;;8.34;100.00;103452.78;4972880;28;19922;-71
2023/12/17 03:50:18;;;;;;;;;;;;;;;8.30;100.00;103454.66;4984833;28;19975;-71
2023/12/17 03:52:44;;;;;;;;;;;;;;;8.30;100.00;103449.31;4982074;28;19984;-71
2023/12/17 03:55:09;;;;;;;;;;;;;;;8.28;100.00;103451.16;4988699;28;19926;-71
2023/12/17 03:57:34;;;;;;;;;;;;;;;8.27;100.00;103449.38;4990194;28;20012;-71
2023/12/17 04:00:00;;;;;;;;;;;;;;;8.26;100.00;103445.81;4982599;28;19921;-71
2023/12/17 04:02:26;;;;;;;;;;;;;;;8.24;100.00;103439.63;4974447;28;20696;-72
2023/12/17 04:04:51;;;;;;;;;;;;;;;8.23;100.00;103428.97;4984325;28;19960;-71
2023/12/17 04:07:16;;;;;;;;;;;;;;;8.18;100.00;103426.41;4986223;28;19922;-71
2023/12/17 04:09:41;;;;;;;;;;;;;;;8.29;100.00;103418.09;4985803;28;19957;-70
2023/12/17 04:12:07;;;;;;;;;;;;;;;8.40;100.00;103410.66;4982969;28;20005;-71
2023/12/17 04:14:32;;;;;;;;;;;;;;;8.26;100.00;103424.41;4985025;28;19928;-71
2023/12/17 04:16:57;;;;;;;;;;;;;;;8.21;100.00;103418.28;4986494;28;19928;-70
2023/12/17 04:19:22;;;;;;;;;;;;;;;8.23;100.00;103407.56;4972638;28;19925;-71
2023/12/17 04:21:47;;;;;;;;;;;;;;;8.31;100.00;103402.00;4974967;28;20717;-71
2023/12/17 04:24:13;;;;;;;;;;;;;;;8.23;100.00;103403.06;4983512;28;19933;-71
2023/12/17 04:26:38;;;;;;;;;;;;;;;8.24;100.00;103417.34;4985294;28;19964;-71
2023/12/17 04:29:03;;;;;;;;;;;;;;;8.20;100.00;103410.31;4973438;28;19922;-71
2023/12/17 04:31:28;;;;;;;;;;;;;;;8.37;100.00;103397.34;4973990;28;20548;-71
2023/12/17 04:33:54;;;;;;;;;;;;;;;8.30;100.00;103408.25;4984845;28;20036;-70
2023/12/17 04:36:19;;;;;;;;;;;;;;;8.25;100.00;103411.06;4986811;28;20657;-70
2023/12/17 04:38:46;;;;;;;;;;;;;;;8.28;100.00;103402.97;4983603;28;20324;-71
2023/12/17 04:41:12;;;;;;;;;;;;;;;8.23;100.00;103404.88;4973044;28;20284;-69
2023/12/17 04:43:37;;;;;;;;;;;;;;;8.20;100.00;103396.94;4971779;28;19982;-71
2023/12/17 04:46:02;;;;;;;;;;;;;;;8.16;100.00;103397.94;4985692;28;20384;-70
2023/12/17 04:48:27;;;;;;;;;;;;;;;8.17;100.00;103392.56;4985539;28;20444;-70
2023/12/17 04:50:52;;;;;;;;;;;;;;;8.15;100.00;103397.06;4983402;28;19931;-70
2023/12/17 04:53:18;;;;;;;;;;;;;;;8.19;100.00;103397.84;4985474;28;19932;-71
2023/12/17 04:55:43;;;;;;;;;;;;;;;8.13;100.00;103387.28;4987059;28;20040;-69
2023/12/17 04:58:08;;;;;;;;;;;;;;;7.89;100.00;103350.47;4967019;28;19943;-69
2023/12/17 05:00:34;;;;;;;;;;;;;;;8.19;100.00;103381.78;4985551;28;20311;-69
2023/12/17 05:02:59;;;;;;;;;;;;;;;8.16;100.00;103379.19;4988330;28;19917;-69
2023/12/17 05:05:25;;;;;;;;;;;;;;;8.13;100.00;103393.53;4970563;28;20203;-69
2023/12/17 05:07:51;;;;;;;;;;;;;;;8.15;100.00;103374.75;4973273;28;20283;-70
2023/12/17 05:10:16;;;;;;;;;;;;;;;8.14;100.00;103376.56;4984728;28;20368;-68
2023/12/17 05:12:41;;;;;;;;;;;;;;;8.26;100.00;103376.22;4987449;28;19937;-69
2023/12/17 05:15:06;;;;;;;;;;;;;;;8.25;100.00;103374.47;4970071;28;19956;-70
2023/12/17 05:17:32;;;;;;;;;;;;;;;8.26;100.00;103389.59;4991158;28;20028;-70
2023/12/17 05:19:57;;;;;;;;;;;;;;;8.16;100.00;103379.19;4986636;28;20311;-70
2023/12/17 05:22:22;;;;;;;;;;;;;;;8.18;100.00;103383.59;4990469;28;20163;-70
2023/12/17 05:24:48;;;;;;;;;;;;;;;8.25;100.00;103392.34;4988388;28;20027;-71
2023/12/17 05:27:13;;;;;;;;;;;;;;;8.24;100.00;103393.25;4976019;28;19924;-70
2023/12/17 05:29:39;;;;;;;;;;;;;;;8.18;100.00;103394.31;4986144;28;19925;-69
2023/12/17 05:32:04;;;;;;;;;;;;;;;8.12;100.00;103399.81;4986077;28;19921;-70
2023/12/17 05:34:29;;;;;;;;;;;;;;;8.09;100.00;103394.53;4990832;28;19953;-69
2023/12/17 05:36:54;;;;;;;;;;;;;;;8.14;100.00;103391.72;4986889;28;20037;-71
2023/12/17 05:39:20;;;;;;;;;;;;;;;8.09;100.00;103379.34;4971212;28;19922;-70
2023/12/17 05:41:45;;;;;;;;;;;;;;;8.07;100.00;103374.97;4989144;28;19975;-69
2023/12/17 05:44:10;;;;;;;;;;;;;;;8.04;100.00;103370.59;4988506;28;19953;-70
2023/12/17 05:46:35;;;;;;;;;;;;;;;8.08;100.00;103364.22;4989264;28;20341;-69
2023/12/17 05:49:01;;;;;;;;;;;;;;;8.07;100.00;103357.13;4989940;28;20260;-71
2023/12/17 05:51:26;;;;;;;;;;;;;;;8.00;100.00;103360.88;4988572;28;20449;-70
2023/12/17 05:53:51;;;;;;;;;;;;;;;7.97;100.00;103363.63;4983881;28;19930;-69
2023/12/17 05:56:16;;;;;;;;;;;;;;;7.92;100.00;103365.53;4986642;28;19963;-69
2023/12/17 05:58:43;;;;;;;;;;;;;;;7.98;100.00;103362.72;4987680;28;20041;-71
2023/12/17 06:01:08;;;;;;;;;;;;;;;7.90;100.00;103360.25;4986510;28;20430;-70
2023/12/17 06:03:33;;;;;;;;;;;;;;;7.93;100.00;103360.19;4988181;28;20357;-69
2023/12/17 06:05:59;;;;;;;;;;;;;;;7.95;100.00;103360.97;5018412;22;19925;-70
2023/12/17 06:08:24;;;;;;;;;;;;;;;7.92;100.00;103370.91;5013785;28;19932;-68
2023/12/17 06:10:50;;;;;;;;;;;;;;;7.98;100.00;103368.06;5013061;28;19925;-72
2023/12/17 06:13:15;;;;;;;;;;;;;;;7.95;100.00;103374.34;5024603;28;19960;-70
2023/12/17 06:15:40;;;;;;;;;;;;;;;7.92;100.00;103378.94;5013227;28;20012;-69
2023/12/17 06:18:05;;;;;;;;;;;;;;;7.92;100.00;103382.50;5015546;28;19921;-69
2023/12/17 06:20:30;;;;;;;;;;;;;;;7.91;100.00;103374.50;5015030;28;19947;-70
2023/12/17 06:22:56;;;;;;;;;;;;;;;7.90;100.00;103373.63;5015092;28;19948;-71
2023/12/17 06:25:21;;;;;;;;;;;;;;;7.86;100.00;103374.63;5010085;28;20315;-71
2023/12/17 06:27:47;;;;;;;;;;;;;;;7.92;100.00;103377.16;5015471;28;20291;-69
2023/12/17 06:30:13;;;;;;;;;;;;;;;7.88;100.00;103374.56;5009952;28;19926;-70
2023/12/17 06:32:38;;;;;;;;;;;;;;;7.85;100.00;103385.34;5027353;28;20124;-69
2023/12/17 06:35:03;;;;;;;;;;;;;;;7.76;100.00;103379.34;5013180;28;19920;-68
2023/12/17 06:37:28;;;;;;;;;;;;;;;7.77;100.00;103388.22;5015893;28;20354;-68
2023/12/17 06:39:54;;;;;;;;;;;;;;;7.84;100.00;103386.25;5012341;28;20216;-70
2023/12/17 06:42:19;;;;;;;;;;;;;;;7.81;100.00;103381.88;5015502;28;20730;-71
2023/12/17 06:44:44;;;;;;;;;;;;;;;7.81;100.00;103397.94;5015498;28;20355;-70
2023/12/17 06:47:09;;;;;;;;;;;;;;;7.77;100.00;103410.50;5016250;28;20083;-71
2023/12/17 06:49:38;;;;;;;;;;;;;;;7.80;100.00;103415.78;5024044;28;20413;-70
2023/12/17 06:52:03;;;;;;;;;;;;;;;7.81;100.00;103412.16;5009981;28;20674;-71
2023/12/17 06:54:28;;;;;;;;;;;;;;;7.83;100.00;103421.94;5017700;28;19958;-70
2023/12/17 06:56:54;;;;;;;;;;;;;;;7.83;100.00;103422.84;5019811;28;20334;-70
2023/12/17 06:59:19;;;;;;;;;;;;;;;7.83;100.00;103433.53;5016745;28;19931;-71
2023/12/17 07:01:44;;;;;;;;;;;;;;;7.83;100.00;103440.66;5015232;28;19921;-71
2023/12/17 07:04:09;;;;;;;;;;;;;;;7.85;100.00;103445.09;5012556;28;19929;-71
2023/12/17 07:06:36;;;;;;;;;;;;;;;7.78;100.00;103444.38;5022344;28;19921;-71
2023/12/17 07:09:01;;;;;;;;;;;;;;;7.79;100.00;103448.78;5011477;28;19927;-70
2023/12/17 07:11:26;;;;;;;;;;;;;;;7.83;100.00;103456.72;5016519;28;19921;-69
2023/12/17 07:13:51;;;;;;;;;;;;;;;7.79;100.00;103450.56;5010395;28;20031;-70
2023/12/17 07:16:23;;;;;;;;;;;;;;;7.77;100.00;103455.06;5016812;28;19957;-70
2023/12/17 07:18:48;;;;;;;;;;;;;;;7.79;100.00;103455.94;5014818;28;20022;-70
2023/12/17 07:21:13;;;;;;;;;;;;;;;7.80;100.00;103453.22;5012458;28;20012;-72
2023/12/17 07:23:39;;;;;;;;;;;;;;;7.77;100.00;103468.44;5013032;28;20002;-69
2023/12/17 07:26:04;;;;;;;;;;;;;;;7.71;100.00;103463.25;5011744;28;19921;-71
2023/12/17 07:28:29;;;;;;;;;;;;;;;7.72;100.00;103476.59;5012130;28;20474;-71
2023/12/17 07:30:54;;;;;;;;;;;;;;;7.71;100.00;103476.63;5011367;28;20382;-69
2023/12/17 07:33:19;;;;;;;;;;;;;;;7.71;100.00;103489.97;5009598;28;20293;-69
2023/12/17 07:35:46;;;;;;;;;;;;;;;7.70;100.00;103478.44;5003995;28;21285;-71
2023/12/17 07:38:12;;;;;;;;;;;;;;;7.71;100.00;103489.97;5008373;28;20336;-69
2023/12/17 07:40:39;;;;;;;;;;;;;;;7.62;100.00;103480.38;5007963;28;20315;-71
2023/12/17 07:43:04;;;;;;;;;;;;;;;7.64;100.00;103492.81;5007286;28;19967;-69
2023/12/17 07:45:29;;;;;;;;;;;;;;;7.61;100.00;103510.72;5005827;28;20920;-70
2023/12/17 07:47:54;;;;;;;;;;;;;;;7.67;100.00;103510.56;5011630;28;20480;-70
2023/12/17 07:50:20;;;;;;;;;;;;;;;7.61;100.00;103521.41;5007115;28;19964;-69
2023/12/17 07:52:45;;;;;;;;;;;;;;;7.54;100.00;103536.72;5011173;28;20008;-68
2023/12/17 07:55:10;;;;;;;;;;;;;;;7.60;100.00;103535.69;5006675;28;19951;-71
2023/12/17 07:57:35;;;;;;;;;;;;;;;7.65;100.00;103545.41;4993241;28;20337;-70
2023/12/17 08:00:00;;;;;;;;;;;;;;;7.61;100.00;103546.38;5009276;28;20314;-71
2023/12/17 08:02:26;;;;;;;;;;;;;;;7.63;100.00;103555.25;5010187;28;19949;-71
2023/12/17 08:04:51;;;;;;;;;;;;;;;7.59;100.00;103552.66;5008547;28;20027;-71
2023/12/17 08:07:17;;;;;;;;;;;;;;;7.59;100.00;103561.56;5008150;28;19921;-71
2023/12/17 08:09:42;;;;;;;;;;;;;;;7.59;100.00;103556.22;5005036;28;19928;-69
2023/12/17 08:12:07;;;;;;;;;;;;;;;7.61;100.00;103562.41;4997408;28;19924;-69
2023/12/17 08:14:32;;;;;;;;;;;;;;;7.58;100.00;103562.47;5008683;28;20308;-71
2023/12/17 08:16:58;;;;;;;;;;;;;;;7.63;100.00;103557.91;5008992;28;20425;-70
2023/12/17 08:19:23;;;;;;;;;;;;;;;7.60;100.00;103559.75;5007480;28;20026;-70
2023/12/17 08:21:48;;;;;;;;;;;;;;;7.67;100.00;103566.75;5002156;28;20311;-70
2023/12/17 08:24:14;;;;;;;;;;;;;;;7.65;100.00;103557.88;5005841;28;20379;-69
2023/12/17 08:26:39;;;;;;;;;;;;;;;7.58;100.00;103566.94;5006358;28;19932;-68
2023/12/17 08:29:04;;;;;;;;;;;;;;;7.40;100.00;103563.75;5009076;28;19968;-69
2023/12/17 08:31:29;;;;;;;;;;;;;;;7.54;100.00;103586.66;5003501;28;21217;-69
2023/12/17 08:33:54;;;;;;;;;;;;;;;7.59;100.00;103593.66;5009481;28;19925;-71
2023/12/17 08:36:22;;;;;;;;;;;;;;;7.55;100.00;103599.09;5010570;28;19922;-71
2023/12/17 08:38:47;;;;;;;;;;;;;;;7.58;100.00;103586.53;5011266;28;20004;-70
2023/12/17 08:41:12;;;;;;;;;;;;;;;7.57;100.00;103602.59;5014149;28;20023;-69
2023/12/17 08:43:38;;;;;;;;;;;;;;;7.60;100.00;103600.75;5016104;28;20291;-71
2023/12/17 08:46:03;;;;;;;;;;;;;;;7.46;100.00;103568.97;5011592;28;19948;-70
2023/12/17 08:48:28;;;;;;;;;;;;;;;7.62;100.00;103596.25;5009107;28;20012;-70
2023/12/17 08:50:53;;;;;;;;;;;;;;;7.56;100.00;103593.72;5010466;28;20534;-69
2023/12/17 08:53:22;;;;;;;;;;;;;;;7.42;100.00;103567.25;5014520;28;20187;-69
2023/12/17 08:55:48;;;;;;;;;;;;;;;7.59;100.00;103587.41;5009136;28;20474;-68
2023/12/17 08:58:13;;;;;;;;;;;;;;;7.60;100.00;103594.50;5011624;28;19987;-70
2023/12/17 09:00:38;;;;;;;;;;;;;;;7.61;100.00;103590.94;5020320;28;19944;-70
2023/12/17 09:03:03;;;;;;;;;;;;;;;7.48;100.00;103582.28;5003895;28;19928;-71
2023/12/17 09:05:28;;;;;;;;;;;;;;;7.45;100.00;103577.91;4996982;28;19925;-69
2023/12/17 09:07:54;;;;;;;;;;;;;;;7.43;100.00;103570.81;5010356;28;20023;-69
2023/12/17 09:10:23;;;;;;;;;;;;;;;7.38;100.00;103570.03;5008327;28;19921;-69
2023/12/17 09:12:48;;;;;;;;;;;;;;;7.47;100.00;103578.75;5009316;28;20016;-68
2023/12/17 09:15:13;;;;;;;;;;;;;;;7.35;100.00;103593.25;5009556;28;20382;-72
2023/12/17 09:17:42;;;;;;;;;;;;;;;7.26;100.00;103577.38;5009078;28;20694;-69
2023/12/17 09:20:07;;;;;;;;;;;;;;;7.26;100.00;103581.88;5005944;28;19964;-69
2023/12/17 09:22:32;;;;;;;;;;;;;;;7.25;100.00;103575.63;5006640;28;19917;-68
2023/12/17 09:24:57;;;;;;;;;;;;;;;7.15;100.00;103574.94;5010802;28;19927;-68
2023/12/17 09:27:23;;;;;;;;;;;;;;;7.38;100.00;103575.38;5007058;28;19960;-70
2023/12/17 09:29:48;;;;;;;;;;;;;;;7.24;100.00;103591.69;5011331;28;20409;-69
2023/12/17 09:32:13;;;;;;;;;;;;;;;7.06;100.00;103572.41;5009735;28;19925;-68
2023/12/17 09:34:38;;;;;;;;;;;;;;;7.15;100.00;103588.28;5010095;28;20343;-69
2023/12/17 09:37:04;;;;;;;;;;;;;;;7.15;100.00;103582.94;5009593;28;19929;-70
2023/12/17 09:39:29;;;;;;;;;;;;;;;7.13;100.00;103592.78;5011707;28;19921;-70
2023/12/17 09:41:54;;;;;;;;;;;;;;;7.14;100.00;103588.31;5010404;28;20001;-71
2023/12/17 09:44:19;;;;;;;;;;;;;;;7.15;100.00;103595.44;5010126;28;19975;-72
2023/12/17 09:46:45;;;;;;;;;;;;;;;7.18;100.00;103601.59;5010685;28;19925;-70
2023/12/17 09:49:10;;;;;;;;;;;;;;;6.95;100.00;103587.78;5011137;28;19935;-70
2023/12/17 09:51:36;;;;;;;;;;;;;;;7.16;100.00;103602.50;5008262;28;20233;-70
2023/12/17 09:54:01;;;;;;;;;;;;;;;7.15;100.00;103604.31;5008278;28;20323;-70
2023/12/17 09:56:26;;;;;;;;;;;;;;;7.14;100.00;103607.91;5008912;28;20075;-69
2023/12/17 09:58:51;;;;;;;;;;;;;;;6.82;100.00;103561.28;5007013;28;19933;-69
2023/12/17 10:01:17;;;;;;;;;;;;;;;7.12;100.00;103606.19;5006447;28;20381;-69
2023/12/17 10:03:42;;;;;;;;;;;;;;;7.12;100.00;103609.72;5009126;28;19928;-71
2023/12/17 10:06:07;;;;;;;;;;;;;;;7.10;100.00;103598.16;5009687;28;19937;-70
2023/12/17 10:08:33;;;;;;;;;;;;;;;7.06;100.00;103599.13;5004020;28;20683;-69
2023/12/17 10:10:59;;;;;;;;;;;;;;;7.03;100.00;103601.84;5007230;28;19933;-68
2023/12/17 10:13:24;;;;;;;;;;;;;;;6.96;100.00;103601.09;5003139;28;21167;-71
2023/12/17 10:15:49;;;;;;;;;;;;;;;7.03;100.00;103605.44;5010482;28;20654;-69
2023/12/17 10:18:16;;;;;;;;;;;;;;;6.77;100.00;103611.22;5016829;28;20391;-69
2023/12/17 10:20:41;;;;;;;;;;;;;;;6.83;100.00;103612.94;5005592;28;19936;-68
2023/12/17 10:23:06;;;;;;;;;;;;;;;6.77;100.00;103613.03;5005399;28;20176;-69
2023/12/17 10:25:32;;;;;;;;;;;;;;;6.82;100.00;103611.16;5004475;28;19994;-68
2023/12/17 10:28:00;;;;;;;;;;;;;;;6.84;100.00;103610.22;5005791;28;20375;-70
2023/12/17 10:30:27;;;;;;;;;;;;;;;6.90;100.00;103606.53;5004071;28;19967;-70
2023/12/17 10:32:53;;;;;;;;;;;;;;;6.88;100.00;103617.28;5010813;28;19932;-69
2023/12/17 10:35:18;;;;;;;;;;;;;;;6.75;100.00;103608.59;5007829;28;19921;-71
2023/12/17 10:37:43;;;;;;;;;;;;;;;6.66;100.00;103594.53;5009297;28;19921;-69
2023/12/17 10:40:11;;;;;;;;;;;;;;;6.84;100.00;103620.03;5012886;28;19952;-69
2023/12/17 10:42:36;;;;;;;;;;;;;;;6.74;100.00;103606.81;5003941;28;19929;-71
2023/12/17 10:45:01;;;;;;;;;;;;;;;6.77;100.00;103607.69;5016687;28;19963;-69
2023/12/17 10:47:27;;;;;;;;;;;;;;;6.70;100.00;103605.13;5001597;28;19966;-69
2023/12/17 10:49:53;;;;;;;;;;;;;;;6.68;100.00;103598.91;4992188;28;19971;-69
2023/12/17 10:52:18;;;;;;;;;;;;;;;6.64;100.00;103597.19;5010270;28;19921;-70
2023/12/17 10:54:43;;;;;;;;;;;;;;;6.62;100.00;103598.16;5001714;28;19963;-71
2023/12/17 10:57:10;;;;;;;;;;;;;;;6.43;100.00;103567.28;4992903;28;20008;-68
2023/12/17 10:59:36;;;;;;;;;;;;;;;6.69;100.00;103591.81;5004644;28;20358;-67
2023/12/17 11:02:01;;;;;;;;;;;;;;;6.65;100.00;103595.44;5002223;28;19926;-70
2023/12/17 11:04:27;;;;;;;;;;;;;;;6.62;100.00;103582.13;5003477;28;20347;-72
2023/12/17 11:06:53;;;;;;;;;;;;;;;6.61;100.00;103567.91;4998547;28;20467;-71
2023/12/17 11:09:19;;;;;;;;;;;;;;;6.61;100.00;103557.22;5005882;28;19952;-73
2023/12/17 11:11:47;;;;;;;;;;;;;;;6.68;100.00;103558.00;5016716;28;20326;-70
2023/12/17 11:14:12;;;;;;;;;;;;;;;6.56;100.00;103557.28;5009596;28;19933;-72
2023/12/17 11:16:38;;;;;;;;;;;;;;;6.66;100.00;103555.34;5014318;28;20333;-72
2023/12/17 11:19:03;;;;;;;;;;;;;;;6.65;100.00;103555.38;5006782;28;20402;-70
2023/12/17 11:21:29;;;;;;;;;;;;;;;6.73;100.00;103545.44;5006636;28;20289;-71
2023/12/17 11:23:54;;;;;;;;;;;;;;;6.77;100.00;103535.59;5005039;28;20132;-70
2023/12/17 11:26:20;;;;;;;;;;;;;;;6.82;100.00;103544.41;5007118;28;19928;-70
2023/12/17 11:28:45;;;;;;;;;;;;;;;6.77;100.00;103541.78;5009046;28;19921;-69
2023/12/17 11:31:14;;;;;;;;;;;;;;;6.84;100.00;103538.09;5010316;28;20248;-70
2023/12/17 11:33:40;;;;;;;;;;;;;;;6.99;100.00;103536.94;5008459;28;20624;-71
2023/12/17 11:36:06;;;;;;;;;;;;;;;6.98;100.00;103532.50;5007329;28;20133;-70
2023/12/17 11:38:31;;;;;;;;;;;;;;;7.43;100.00;103528.94;4994680;28;19925;-70
2023/12/17 11:40:56;;;;;;;;;;;;;;;7.68;100.00;103531.06;4994798;28;19920;-70
2023/12/17 11:43:25;;;;;;;;;;;;;;;7.70;100.00;103549.72;5006618;28;19917;-70
2023/12/17 11:45:50;;;;;;;;;;;;;;;7.66;100.00;103551.59;4996380;28;19917;-70
2023/12/17 11:48:19;;;;;;;;;;;;;;;8.18;100.00;103548.63;5007561;28;19940;-70
2023/12/17 11:50:52;;;;;;;;;;;;;;;8.33;100.00;103553.63;5009347;28;19921;-70
2023/12/17 11:53:20;;;;;;;;;;;;;;;9.46;100.00;103557.75;5008319;28;20378;-71
2023/12/17 11:55:52;;;;;;;;;;;;;;;10.35;100.00;103551.38;5005838;28;19921;-71
2023/12/17 11:58:21;;;;;;;;;;;;;;;10.76;100.00;103547.38;4995550;28;19921;-71
2023/12/17 12:01:00;;;;;;;;;;;;;;;10.29;100.00;103548.03;5009995;28;20366;-70
2023/12/17 12:03:25;;;;;;;;;;;;;;;10.62;100.00;103545.16;5007242;28;20524;-73
2023/12/17 12:05:54;;;;;;;;;;;;;;;10.67;100.00;103551.25;5004293;28;19925;-71
2023/12/17 12:08:20;;;;;;;;;;;;;;;11.27;100.00;103539.25;5005027;28;19950;-71
2023/12/17 12:10:48;;;;;;;;;;;;;;;11.93;100.00;103533.97;4993028;28;19936;-72
2023/12/17 12:13:14;;;;;;;;;;;;;;;11.78;100.00;103532.78;5009350;28;20375;-70
2023/12/17 12:15:40;;;;;;;;;;;;;;;12.12;100.00;103536.84;5011191;28;19925;-71
2023/12/17 12:18:05;;;;;;;;;;;;;;;12.39;100.00;103517.75;5012817;28;19931;-73
2023/12/17 12:20:34;;;;;;;;;;;;;;;12.52;100.00;103514.50;5000791;28;19917;-70
2023/12/17 12:22:59;;;;;;;;;;;;;;;13.12;100.00;103514.53;5009458;28;20423;-71
2023/12/17 12:25:25;;;;;;;;;;;;;;;13.22;100.00;103481.72;4990240;28;19932;-71